Time;durP1;ratioP1;P1;durP2;ratioP2;P2;SDS_P1;SDS_P2;PMS_P1;PMS_P2;Temp;Humidity;BMP_temperature;BMP_pressure;BME280_temperature;BME280_humidity;BME280_pressure;Samples;Min_cycle;Max_cycle;Signal;HPM_P1;HPM_P2
2022/02/15 00:00:00;;;;;;;11.90;3.10;;;7.80;99.90;;;;;;5137283;27;20200;-81
2022/02/15 00:02:26;;;;;;;8.40;2.87;;;7.90;99.90;;;;;;5138228;27;20212;-83
2022/02/15 00:04:55;;;;;;;7.60;3.17;;;7.90;99.90;;;;;;5137464;27;20222;-81
2022/02/15 00:07:22;;;;;;;9.30;3.20;;;7.80;99.90;;;;;;5138329;27;20192;-82
2022/02/15 00:09:50;;;;;;;9.17;2.80;;;7.80;99.90;;;;;;5137801;27;20211;-89
2022/02/15 00:12:18;;;;;;;6.83;3.30;;;7.90;99.90;;;;;;5138484;27;20662;-82
2022/02/15 00:14:45;;;;;;;10.53;3.07;;;7.90;99.90;;;;;;5136685;27;20219;-81
2022/02/15 00:17:12;;;;;;;6.90;2.80;;;7.80;99.90;;;;;;5137574;27;20211;-82
2022/02/15 00:19:38;;;;;;;13.33;3.43;;;7.80;99.90;;;;;;5137465;27;20207;-82
2022/02/15 00:22:07;;;;;;;6.57;2.97;;;7.80;99.90;;;;;;5137649;27;20204;-82
2022/02/15 00:24:34;;;;;;;7.93;2.87;;;7.80;99.90;;;;;;5137613;27;20203;-81
2022/02/15 00:27:02;;;;;;;8.80;3.07;;;7.80;99.90;;;;;;5137185;27;20207;-81
2022/02/15 00:29:30;;;;;;;8.43;3.07;;;7.80;99.90;;;;;;5136984;27;20229;-82
2022/02/15 00:31:57;;;;;;;12.40;3.23;;;7.80;99.90;;;;;;5137505;27;20216;-82
2022/02/15 00:34:25;;;;;;;8.57;3.17;;;7.70;99.90;;;;;;5137257;27;20207;-81
2022/02/15 00:36:53;;;;;;;7.87;2.70;;;7.60;99.90;;;;;;5137295;27;20534;-83
2022/02/15 00:39:20;;;;;;;6.20;2.70;;;7.60;99.90;;;;;;5138393;27;20207;-80
2022/02/15 00:41:48;;;;;;;10.33;2.87;;;7.60;99.90;;;;;;5138020;27;20643;-82
2022/02/15 00:44:16;;;;;;;5.97;2.23;;;7.60;99.90;;;;;;5137554;27;20192;-79
2022/02/15 00:46:45;;;;;;;9.73;3.00;;;7.60;99.90;;;;;;5136990;27;20206;-79
2022/02/15 00:49:12;;;;;;;8.40;2.67;;;7.60;99.90;;;;;;5136372;27;20207;-80
2022/02/15 00:51:40;;;;;;;5.57;2.83;;;7.60;99.90;;;;;;5136567;27;20204;-81
2022/02/15 00:54:07;;;;;;;13.53;3.93;;;7.60;99.90;;;;;;5136826;27;20231;-79
2022/02/15 00:56:34;;;;;;;5.90;2.60;;;7.50;99.90;;;;;;5137088;27;20208;-81
2022/02/15 00:59:02;;;;;;;9.77;3.87;;;7.50;99.90;;;;;;5136820;27;20199;-81
2022/02/15 01:01:29;;;;;;;11.60;2.90;;;7.50;99.90;;;;;;5136835;27;20639;-81
2022/02/15 01:03:57;;;;;;;8.13;3.30;;;7.50;99.90;;;;;;5136790;27;20207;-82
2022/02/15 01:06:24;;;;;;;7.27;3.13;;;7.50;99.90;;;;;;5137632;27;20203;-84
2022/02/15 01:08:51;;;;;;;18.13;3.93;;;7.40;99.90;;;;;;5138758;27;20206;-80
2022/02/15 01:11:18;;;;;;;10.20;3.03;;;7.30;99.90;;;;;;5137211;27;20194;-83
2022/02/15 01:13:45;;;;;;;9.33;3.17;;;7.30;99.90;;;;;;5136466;27;20235;-83
2022/02/15 01:16:12;;;;;;;12.03;3.60;;;7.30;99.90;;;;;;5138285;27;20655;-82
2022/02/15 01:18:41;;;;;;;9.63;3.30;;;7.30;99.90;;;;;;5137317;27;20192;-81
2022/02/15 01:21:10;;;;;;;12.57;4.10;;;7.30;99.90;;;;;;5136046;27;20483;-83
2022/02/15 01:23:39;;;;;;;7.97;3.07;;;7.40;99.90;;;;;;5136495;27;20709;-83
2022/02/15 01:26:07;;;;;;;7.93;3.33;;;7.30;99.90;;;;;;5137052;27;20265;-83
2022/02/15 01:28:34;;;;;;;7.67;2.83;;;7.30;99.90;;;;;;5136013;27;20670;-84
2022/02/15 01:31:01;;;;;;;9.57;4.10;;;7.30;99.90;;;;;;5136568;27;20195;-83
2022/02/15 01:33:29;;;;;;;8.67;3.13;;;7.40;99.90;;;;;;5136113;27;20231;-83
2022/02/15 01:35:59;;;;;;;7.03;3.30;;;7.50;99.90;;;;;;5138199;27;20203;-83
2022/02/15 01:38:27;;;;;;;7.90;3.33;;;7.60;99.90;;;;;;5137354;27;20200;-83
2022/02/15 01:40:54;;;;;;;7.40;3.37;;;7.50;99.90;;;;;;5138044;27;20208;-85
2022/02/15 01:43:21;;;;;;;14.03;3.90;;;7.50;99.90;;;;;;5138523;27;20196;-82
2022/02/15 01:45:49;;;;;;;7.47;3.87;;;7.40;99.90;;;;;;5138319;27;20207;-80
2022/02/15 01:48:16;;;;;;;8.10;3.73;;;7.40;99.90;;;;;;5135581;27;20203;-79
2022/02/15 01:50:43;;;;;;;8.37;3.87;;;7.50;99.90;;;;;;5135953;27;20210;-79
2022/02/15 01:53:11;;;;;;;8.83;3.80;;;7.30;99.90;;;;;;5135661;27;20230;-80
2022/02/15 01:55:41;;;;;;;10.87;3.97;;;7.50;99.90;;;;;;5135602;27;20183;-80
2022/02/15 01:58:12;;;;;;;12.50;4.67;;;7.50;99.90;;;;;;5135621;27;20627;-79
2022/02/15 02:00:39;;;;;;;8.57;4.20;;;7.50;99.90;;;;;;5135255;27;20200;-80
2022/02/15 02:03:06;;;;;;;8.03;4.63;;;7.50;99.90;;;;;;5135269;27;20194;-82
2022/02/15 02:05:50;;;;;;;7.77;4.50;;;7.40;99.90;;;;;;5136511;27;20203;-79
2022/02/15 02:08:17;;;;;;;11.13;4.97;;;7.30;99.90;;;;;;5137037;27;20211;-81
2022/02/15 02:10:46;;;;;;;7.87;4.80;;;7.40;99.90;;;;;;5135620;27;20230;-79
2022/02/15 02:13:13;;;;;;;11.37;4.63;;;7.30;99.90;;;;;;5137382;27;20232;-82
2022/02/15 02:15:40;;;;;;;10.57;4.53;;;7.30;99.90;;;;;;5136714;27;20213;-80
2022/02/15 02:18:13;;;;;;;11.53;5.87;;;7.30;99.90;;;;;;5134845;27;20209;-79
2022/02/15 02:20:43;;;;;;;8.97;4.87;;;7.20;99.90;;;;;;5136003;27;20192;-79
2022/02/15 02:23:11;;;;;;;12.60;5.30;;;7.20;99.90;;;;;;5136074;27;20204;-78
2022/02/15 02:25:39;;;;;;;8.47;5.30;;;7.20;99.90;;;;;;5136234;27;20192;-80
2022/02/15 02:28:06;;;;;;;11.43;5.00;;;7.20;99.90;;;;;;5136187;27;20191;-81
2022/02/15 02:30:34;;;;;;;12.50;5.90;;;7.30;99.90;;;;;;5135234;27;20210;-79
2022/02/15 02:33:01;;;;;;;8.60;5.23;;;7.10;99.90;;;;;;5135665;27;20305;-78
2022/02/15 02:35:28;;;;;;;14.37;5.77;;;7.10;99.90;;;;;;5136078;27;20199;-78
2022/02/15 02:37:55;;;;;;;11.10;5.63;;;7.00;99.90;;;;;;5134772;27;20199;-78
2022/02/15 02:40:23;;;;;;;14.50;5.73;;;7.20;99.90;;;;;;5135939;27;20653;-80
2022/02/15 02:42:52;;;;;;;11.93;6.17;;;7.00;99.90;;;;;;5136364;27;20196;-82
2022/02/15 02:45:22;;;;;;;8.23;5.60;;;6.90;99.90;;;;;;5134498;27;20198;-79
2022/02/15 02:47:54;;;;;;;17.23;6.80;;;7.00;99.90;;;;;;5134886;28;20238;-82
2022/02/15 02:50:26;;;;;;;11.13;5.23;;;6.90;99.90;;;;;;5134871;28;20211;-80
2022/02/15 02:52:53;;;;;;;11.03;5.70;;;6.90;99.90;;;;;;5135185;28;20243;-81
2022/02/15 02:55:20;;;;;;;10.37;6.17;;;6.90;99.90;;;;;;5135272;28;20305;-82
2022/02/15 02:57:55;;;;;;;6.43;4.87;;;6.80;99.90;;;;;;5135353;28;20192;-87
2022/02/15 03:00:22;;;;;;;13.80;5.33;;;6.80;99.90;;;;;;5136310;28;20207;-84
2022/02/15 03:02:49;;;;;;;6.67;4.87;;;6.90;99.90;;;;;;5135673;28;20192;-84
2022/02/15 03:05:16;;;;;;;9.60;5.90;;;6.90;99.90;;;;;;5136225;28;20203;-83
2022/02/15 03:07:44;;;;;;;13.57;5.37;;;6.90;99.90;;;;;;5136005;28;20199;-82
2022/02/15 03:10:11;;;;;;;12.30;5.97;;;6.80;99.90;;;;;;5135870;28;20192;-83
2022/02/15 03:12:38;;;;;;;9.30;5.20;;;6.80;99.90;;;;;;5135530;28;20207;-82
2022/02/15 03:15:08;;;;;;;13.13;5.23;;;6.70;99.90;;;;;;5135471;28;20200;-82
2022/02/15 03:17:35;;;;;;;22.47;6.20;;;6.70;99.90;;;;;;5135298;28;20191;-84
2022/02/15 03:20:09;;;;;;;9.63;5.27;;;6.60;99.90;;;;;;5136391;28;20199;-83
2022/02/15 03:22:36;;;;;;;10.53;4.87;;;6.70;99.90;;;;;;5136360;28;20211;-82
2022/02/15 03:25:04;;;;;;;14.63;5.67;;;6.80;99.90;;;;;;5137605;28;20675;-84
2022/02/15 03:27:31;;;;;;;12.37;5.40;;;6.80;99.90;;;;;;5139206;27;20200;-81
2022/02/15 03:29:57;;;;;;;11.77;5.40;;;6.80;99.90;;;;;;5140497;27;20208;-83
2022/02/15 03:32:30;;;;;;;7.53;5.10;;;6.80;99.90;;;;;;5140438;27;20214;-84
2022/02/15 03:34:56;;;;;;;10.27;4.90;;;6.80;99.90;;;;;;5121282;27;20240;-86
2022/02/15 03:37:23;;;;;;;14.93;5.57;;;6.90;99.90;;;;;;5118400;28;20215;-78
2022/02/15 03:39:50;;;;;;;11.83;5.27;;;6.70;99.90;;;;;;5118265;28;20208;-79
2022/02/15 03:45:02;;;;;;;12.77;5.17;;;6.90;99.90;;;;;;5125986;27;20269;-78
2022/02/15 03:47:30;;;;;;;10.30;4.50;;;6.90;99.90;;;;;;5137959;27;20194;-79
2022/02/15 03:49:57;;;;;;;8.77;4.60;;;6.90;99.90;;;;;;5137968;27;20200;-79
2022/02/15 03:52:24;;;;;;;12.15;5.30;;;6.90;99.90;;;;;;5137296;27;20964;-78
2022/02/15 03:54:51;;;;;;;9.83;4.73;;;6.90;99.90;;;;;;5139451;27;20215;-80
2022/02/15 03:57:18;;;;;;;13.73;5.00;;;6.90;99.90;;;;;;5137915;27;20205;-79
2022/02/15 03:59:47;;;;;;;10.70;4.73;;;6.90;99.90;;;;;;5139079;27;20195;-81
2022/02/15 04:02:14;;;;;;;9.13;4.80;;;6.90;99.90;;;;;;5138118;27;20192;-79
2022/02/15 04:04:42;;;;;;;7.77;4.70;;;6.90;99.90;;;;;;5138192;27;20218;-78
2022/02/15 04:07:11;;;;;;;12.20;5.43;;;7.00;99.90;;;;;;5138656;27;20207;-78
2022/02/15 04:09:39;;;;;;;10.57;4.63;;;6.90;99.90;;;;;;5139914;27;20203;-78
2022/02/15 04:12:10;;;;;;;6.67;4.93;;;7.00;99.90;;;;;;5138076;27;20223;-78
2022/02/15 04:14:36;;;;;;;10.63;6.00;;;7.00;99.90;;;;;;5137200;27;20566;-79
2022/02/15 04:17:05;;;;;;;9.57;4.33;;;7.00;99.90;;;;;;5137451;27;20608;-78
2022/02/15 04:19:34;;;;;;;6.53;4.20;;;6.90;99.90;;;;;;5138388;27;20204;-89
2022/02/15 04:22:02;;;;;;;8.03;3.70;;;6.90;99.90;;;;;;5138528;27;20198;-79
2022/02/15 04:27:36;;;;;;;8.53;3.60;;;7.00;99.90;;;;;;5095086;28;20225;-93
2022/02/15 04:30:04;;;;;;;9.35;3.83;;;6.90;99.90;;;;;;5093994;22;20425;-93
2022/02/15 04:32:34;;;;;;;7.83;3.63;;;6.90;99.90;;;;;;5076536;28;20251;-91
2022/02/15 04:35:04;;;;;;;7.43;3.57;;;7.00;99.90;;;;;;5075889;28;20235;-93
2022/02/15 04:38:06;;;;;;;8.80;3.90;;;7.00;99.90;;;;;;5076496;28;20213;-92
2022/02/15 04:40:33;;;;;;;6.83;3.97;;;6.90;99.90;;;;;;5075786;28;20212;-92
2022/02/15 04:43:03;;;;;;;8.27;3.80;;;7.00;99.90;;;;;;5076245;28;20198;-92
2022/02/15 04:45:35;;;;;;;11.70;3.80;;;7.00;99.90;;;;;;5076527;28;20209;-93
2022/02/15 04:48:46;;;;;;;8.60;3.27;;;7.00;99.90;;;;;;5075974;28;20209;-92
2022/02/15 04:51:20;;;;;;;4.40;3.10;;;7.00;99.90;;;;;;5075648;28;20197;-92
2022/02/15 04:54:21;;;;;;;10.00;3.07;;;7.00;99.90;;;;;;5075996;28;20218;-92
2022/02/15 04:56:49;;;;;;;6.53;3.30;;;6.90;99.90;;;;;;5075994;28;20209;-91
2022/02/15 04:59:20;;;;;;;8.13;2.90;;;7.00;99.90;;;;;;5076465;28;20209;-92
2022/02/15 05:01:49;;;;;;;7.73;2.83;;;7.00;99.90;;;;;;5076132;28;20198;-93
2022/02/15 05:07:05;;;;;;;11.63;3.77;;;7.10;99.90;;;;;;5075788;28;20656;-91
2022/02/15 05:09:36;;;;;;;7.37;2.90;;;7.10;99.90;;;;;;5075831;28;20205;-92
2022/02/15 05:12:09;;;;;;;7.87;3.20;;;7.10;99.90;;;;;;5075940;28;20213;-92
2022/02/15 05:14:39;;;;;;;6.70;3.13;;;7.00;99.90;;;;;;5075704;28;20221;-92
2022/02/15 05:17:09;;;;;;;6.63;3.47;;;7.00;99.90;;;;;;5075486;28;20659;-92
2022/02/15 05:19:41;;;;;;;9.27;3.70;;;7.00;99.90;;;;;;5075545;28;20208;-92
2022/02/15 05:22:14;;;;;;;9.40;3.13;;;7.00;99.90;;;;;;5075599;28;20722;-93
2022/02/15 05:24:44;;;;;;;8.37;4.03;;;6.90;99.90;;;;;;5075368;28;20201;-92
2022/02/15 05:27:15;;;;;;;12.13;4.00;;;6.90;99.90;;;;;;5075405;28;20209;-91
2022/02/15 05:30:02;;;;;;;5.67;3.37;;;7.00;99.90;;;;;;5074927;28;20269;-91
2022/02/15 05:32:34;;;;;;;9.17;3.63;;;7.00;99.90;;;;;;5075284;28;20660;-93
2022/02/15 05:35:05;;;;;;;5.90;3.20;;;7.00;99.90;;;;;;5074530;28;20259;-94
2022/02/15 05:37:33;;;;;;;8.17;4.20;;;6.90;99.90;;;;;;5057315;28;20223;-91
2022/02/15 05:40:03;;;;;;;8.87;4.43;;;6.90;99.90;;;;;;5075510;28;20194;-92
2022/02/15 05:42:31;;;;;;;6.70;3.03;;;6.90;99.90;;;;;;5057261;28;20240;-94
2022/02/15 05:45:01;;;;;;;11.87;4.03;;;6.90;99.90;;;;;;5074074;28;20300;-93
2022/02/15 05:47:34;;;;;;;6.78;3.63;;;6.80;99.90;;;;;;5074241;28;20502;-93
2022/02/15 05:52:49;;;;;;;5.07;2.83;;;6.80;99.90;;;;;;5074699;28;20227;-93
2022/02/15 05:55:21;;;;;;;7.30;2.70;;;6.90;99.90;;;;;;5074477;28;20588;-93
2022/02/15 05:57:48;;;;;;;5.93;3.20;;;6.80;99.90;;;;;;5074342;28;20293;-91
2022/02/15 06:00:17;;;;;;;7.13;3.13;;;6.70;99.90;;;;;;5055910;28;20201;-93
2022/02/15 06:04:09;;;;;;;7.33;2.90;;;6.60;99.90;;;;;;5074364;28;20233;-93
2022/02/15 06:05:50;;;;;;;4.80;2.43;;;6.60;99.90;;;;;;5073878;28;20229;-93
2022/02/15 06:08:17;;;;;;;8.80;2.80;;;6.60;99.90;;;;;;5074454;28;20205;-93
2022/02/15 06:11:10;;;;;;;8.33;2.60;;;6.60;99.90;;;;;;5074932;28;20202;-91
2022/02/15 06:13:40;;;;;;;6.03;2.40;;;6.60;99.90;;;;;;5074539;28;20202;-92
2022/02/15 06:16:10;;;;;;;5.23;2.63;;;6.60;99.90;;;;;;5074160;28;20206;-92
2022/02/15 06:18:40;;;;;;;10.73;2.63;;;6.60;99.90;;;;;;5074482;28;20190;-92
2022/02/15 06:21:08;;;;;;;11.27;2.63;;;6.70;99.90;;;;;;5074402;28;20209;-91
2022/02/15 06:23:36;;;;;;;7.53;2.27;;;6.70;99.90;;;;;;5056778;28;20217;-91
2022/02/15 06:26:03;;;;;;;8.15;2.60;;;6.70;99.90;;;;;;5073357;28;20778;-92
2022/02/15 06:28:31;;;;;;;6.17;2.50;;;6.80;99.90;;;;;;5073404;28;20232;-91
2022/02/15 06:30:58;;;;;;;6.63;2.13;;;6.70;99.90;;;;;;5073315;28;20205;-93
2022/02/15 06:33:26;;;;;;;10.93;2.17;;;6.70;99.90;;;;;;5073324;28;20292;-90
2022/02/15 06:35:54;;;;;;;4.40;2.13;;;6.60;99.90;;;;;;5073463;28;20597;-90
2022/02/15 06:38:24;;;;;;;4.43;2.00;;;6.70;99.90;;;;;;5073770;28;20194;-91
2022/02/15 06:40:56;;;;;;;6.00;2.20;;;6.60;99.90;;;;;;5074101;28;20520;-93
2022/02/15 06:43:24;;;;;;;6.07;2.83;;;6.60;99.90;;;;;;5074079;28;20201;-91
2022/02/15 06:45:59;;;;;;;5.70;2.53;;;6.60;99.90;;;;;;5073949;28;20217;-91
2022/02/15 06:48:29;;;;;;;9.13;2.17;;;6.60;99.90;;;;;;5056052;28;20209;-94
2022/02/15 06:50:58;;;;;;;11.27;2.87;;;6.60;99.90;;;;;;5073873;28;20198;-92
2022/02/15 06:53:27;;;;;;;5.17;2.00;;;6.50;99.90;;;;;;5074175;28;20198;-94
2022/02/15 06:56:00;;;;;;;8.97;2.80;;;6.50;99.90;;;;;;5073810;28;20276;-94
2022/02/15 06:58:34;;;;;;;5.57;2.03;;;6.40;99.90;;;;;;5074318;28;20186;-92
2022/02/15 07:01:02;;;;;;;9.47;2.50;;;6.30;99.90;;;;;;5073685;28;20571;-93
2022/02/15 07:03:35;;;;;;;6.13;2.43;;;6.20;99.90;;;;;;5077576;28;20198;-93
2022/02/15 07:06:08;;;;;;;5.43;2.33;;;6.20;99.90;;;;;;5077840;28;20208;-92
2022/02/15 07:08:35;;;;;;;5.47;2.43;;;6.10;99.90;;;;;;5077841;28;20194;-92
2022/02/15 07:11:05;;;;;;;9.00;2.60;;;6.10;99.90;;;;;;5077720;28;20212;-93
2022/02/15 07:13:31;;;;;;;9.43;2.70;;;6.10;99.90;;;;;;5077728;28;20213;-92
2022/02/15 07:16:02;;;;;;;8.10;2.07;;;6.10;99.90;;;;;;5077735;28;20233;-90
2022/02/15 07:18:31;;;;;;;7.70;2.30;;;6.00;99.90;;;;;;5077909;28;20205;-90
2022/02/15 07:21:00;;;;;;;8.83;2.20;;;5.90;99.90;;;;;;5077401;28;20210;-90
2022/02/15 07:23:27;;;;;;;11.60;3.00;;;6.00;99.90;;;;;;5077446;28;20201;-92
2022/02/15 07:25:55;;;;;;;9.50;2.70;;;5.90;99.90;;;;;;5076727;28;20190;-90
2022/02/15 07:28:22;;;;;;;8.63;2.47;;;6.00;99.90;;;;;;5077117;28;20306;-93
2022/02/15 07:30:49;;;;;;;6.53;2.40;;;6.00;99.90;;;;;;5076771;28;20202;-91
2022/02/15 07:33:20;;;;;;;6.83;2.33;;;6.10;99.90;;;;;;5077185;28;20213;-91
2022/02/15 07:35:46;;;;;;;9.27;2.37;;;6.00;99.90;;;;;;5076918;28;20604;-92
2022/02/15 07:38:14;;;;;;;6.97;2.50;;;6.00;99.90;;;;;;5076999;28;20209;-91
2022/02/15 07:40:41;;;;;;;7.30;2.33;;;6.00;99.90;;;;;;5076843;28;20210;-93
2022/02/15 07:43:11;;;;;;;4.67;2.20;;;6.00;99.90;;;;;;5077134;28;20205;-91
2022/02/15 07:45:54;;;;;;;8.47;2.43;;;5.90;99.90;;;;;;5077110;28;20197;-91
2022/02/15 07:48:27;;;;;;;9.33;2.67;;;5.80;99.90;;;;;;5076594;28;20198;-89
2022/02/15 07:50:54;;;;;;;6.63;2.20;;;5.80;99.90;;;;;;5056722;28;20203;-91
2022/02/15 07:53:22;;;;;;;13.10;2.87;;;5.70;99.90;;;;;;5057176;28;20191;-90
2022/02/15 07:55:54;;;;;;;5.33;2.20;;;5.60;99.90;;;;;;5056630;28;20586;-91
2022/02/15 07:58:27;;;;;;;5.57;1.90;;;5.70;99.90;;;;;;5056522;28;20191;-90
2022/02/15 08:01:02;;;;;;;5.97;2.37;;;5.70;99.90;;;;;;5071309;28;20202;-91
2022/02/15 08:03:31;;;;;;;8.93;2.30;;;5.70;99.90;;;;;;5076806;28;20215;-90
2022/02/15 08:06:01;;;;;;;9.47;2.20;;;5.50;99.90;;;;;;5058494;28;20244;-91
2022/02/15 08:08:31;;;;;;;6.83;2.37;;;5.60;99.90;;;;;;5058824;28;20244;-89
2022/02/15 08:11:00;;;;;;;5.40;1.53;;;5.60;99.90;;;;;;5076158;28;20547;-91
2022/02/15 08:13:34;;;;;;;9.73;1.83;;;5.60;99.90;;;;;;5076224;28;20194;-90
2022/02/15 08:16:04;;;;;;;7.53;2.10;;;5.60;99.90;;;;;;5076213;28;20702;-91
2022/02/15 08:18:41;;;;;;;7.97;1.87;;;5.60;99.90;;;;;;5076463;28;20697;-91
2022/02/15 08:21:13;;;;;;;7.33;1.60;;;5.70;99.90;;;;;;5076308;28;20644;-91
2022/02/15 08:23:41;;;;;;;7.73;2.33;;;5.80;99.90;;;;;;5076617;28;20435;-91
2022/02/15 08:26:14;;;;;;;8.83;2.10;;;5.80;99.90;;;;;;5076419;28;20202;-91
2022/02/15 08:28:43;;;;;;;6.57;1.87;;;5.90;99.90;;;;;;5076012;28;20238;-94
2022/02/15 08:31:16;;;;;;;7.57;2.20;;;6.00;99.90;;;;;;5077329;28;20248;-94
2022/02/15 08:33:47;;;;;;;7.37;2.53;;;6.10;99.90;;;;;;5078253;28;20209;-95
2022/02/15 08:36:18;;;;;;;7.03;1.70;;;6.10;99.90;;;;;;5079049;28;20225;-95
2022/02/15 08:38:48;;;;;;;7.93;2.20;;;6.20;99.90;;;;;;5080313;28;20613;-94
2022/02/15 08:41:18;;;;;;;11.93;2.30;;;6.20;99.90;;;;;;5078384;28;20194;-96
2022/02/15 08:44:04;;;;;;;4.53;1.87;;;6.40;99.90;;;;;;5077730;28;20205;-95
2022/02/15 08:46:31;;;;;;;7.23;2.20;;;6.40;99.90;;;;;;5077275;28;20209;-94
2022/02/15 08:49:08;;;;;;;6.20;2.10;;;6.30;99.90;;;;;;5081389;28;20190;-95
2022/02/15 08:51:49;;;;;;;10.27;2.60;;;6.40;99.90;;;;;;5077907;28;20194;-93
2022/02/15 08:54:21;;;;;;;8.60;2.13;;;6.30;99.90;;;;;;5077018;28;20210;-93
2022/02/15 08:56:50;;;;;;;8.63;2.20;;;6.40;99.90;;;;;;5078102;28;20190;-91
2022/02/15 08:59:18;;;;;;;8.03;2.47;;;6.40;99.90;;;;;;5079491;28;20190;-93
2022/02/15 09:01:47;;;;;;;6.97;1.57;;;6.50;99.90;;;;;;5076652;28;20196;-94
2022/02/15 09:04:18;;;;;;;10.57;2.47;;;6.50;99.90;;;;;;5077766;28;20194;-92
2022/02/15 09:06:47;;;;;;;9.77;2.53;;;6.50;99.90;;;;;;5079965;28;20200;-93
2022/02/15 09:09:14;;;;;;;8.63;2.07;;;6.60;99.90;;;;;;5079404;28;20194;-92
2022/02/15 09:11:43;;;;;;;6.43;2.03;;;6.60;99.90;;;;;;5080698;28;20194;-93
2022/02/15 09:14:12;;;;;;;14.80;2.50;;;6.70;99.90;;;;;;5059228;28;20209;-93
2022/02/15 09:17:20;;;;;;;7.13;1.97;;;6.60;99.90;;;;;;5075656;28;20225;-92
2022/02/15 09:19:49;;;;;;;7.70;1.90;;;6.60;99.90;;;;;;5076201;28;22090;-93
2022/02/15 09:22:18;;;;;;;7.30;1.87;;;6.70;99.90;;;;;;5060258;28;20257;-93
2022/02/15 09:24:51;;;;;;;8.67;2.50;;;6.90;99.90;;;;;;5076700;28;20200;-94
2022/02/15 09:27:20;;;;;;;14.83;2.47;;;6.90;99.90;;;;;;5077705;28;20292;-95
2022/02/15 09:29:47;;;;;;;8.43;2.27;;;7.00;99.90;;;;;;5081064;28;20663;-96
2022/02/15 09:32:14;;;;;;;14.47;2.47;;;7.10;99.90;;;;;;5078861;28;20224;-86
2022/02/15 09:34:49;;;;;;;8.50;2.20;;;7.20;99.90;;;;;;5075450;28;20205;-95
2022/02/15 09:37:19;;;;;;;11.93;2.17;;;7.20;99.90;;;;;;5075301;28;20201;-96
2022/02/15 09:40:11;;;;;;;7.97;2.23;;;7.30;99.90;;;;;;5074942;28;20210;-92
2022/02/15 09:42:41;;;;;;;10.97;2.30;;;7.40;99.90;;;;;;5074855;28;20209;-94
2022/02/15 09:45:45;;;;;;;6.87;2.23;;;7.40;99.90;;;;;;5075102;28;20201;-94
2022/02/15 09:48:30;;;;;;;9.43;2.60;;;7.50;99.90;;;;;;5075536;28;20209;-94
2022/02/15 09:51:08;;;;;;;13.40;3.33;;;7.60;99.90;;;;;;5077895;28;20197;-96
2022/02/15 09:53:38;;;;;;;10.20;2.37;;;7.60;99.90;;;;;;5078380;28;20280;-91
2022/02/15 09:56:08;;;;;;;11.23;2.90;;;7.60;99.90;;;;;;5057317;28;20275;-93
2022/02/15 09:58:42;;;;;;;11.33;2.67;;;7.60;99.90;;;;;;5077031;28;20672;-95
2022/02/15 10:01:18;;;;;;;10.57;2.97;;;7.80;99.90;;;;;;5077899;28;20194;-94
2022/02/15 10:03:59;;;;;;;10.67;3.77;;;7.90;99.90;;;;;;5076116;28;20208;-93
2022/02/15 10:06:31;;;;;;;9.47;2.77;;;7.80;99.90;;;;;;5057817;28;20198;-92
2022/02/15 10:09:04;;;;;;;6.10;2.63;;;7.90;99.90;;;;;;5075765;28;20200;-94
2022/02/15 10:11:40;;;;;;;9.23;2.73;;;7.90;99.90;;;;;;5081087;28;20202;-93
2022/02/15 10:14:14;;;;;;;11.73;3.73;;;8.00;99.90;;;;;;5076311;28;20208;-93
2022/02/15 10:16:58;;;;;;;12.27;2.90;;;8.10;99.90;;;;;;5075472;28;20205;-96
2022/02/15 10:19:32;;;;;;;9.63;2.67;;;8.20;99.90;;;;;;5076138;28;20222;-95
2022/02/15 10:22:04;;;;;;;8.77;2.90;;;8.30;99.90;;;;;;5074476;28;20198;-92
2022/02/15 10:24:33;;;;;;;10.47;3.13;;;8.40;99.90;;;;;;5074199;28;20244;-91
2022/02/15 10:27:08;;;;;;;12.00;3.80;;;8.40;99.90;;;;;;5075331;28;20194;-92
2022/02/15 10:29:36;;;;;;;10.70;3.67;;;8.50;99.90;;;;;;5074860;28;20241;-93
2022/02/15 10:32:06;;;;;;;12.80;3.40;;;8.50;99.90;;;;;;5075567;28;20201;-95
2022/02/15 10:34:33;;;;;;;10.80;3.53;;;8.60;99.90;;;;;;5075685;28;20233;-95
2022/02/15 10:37:07;;;;;;;11.17;3.37;;;8.60;99.90;;;;;;5078114;28;20272;-94
2022/02/15 10:39:42;;;;;;;9.37;3.43;;;8.60;99.90;;;;;;5057127;28;20205;-94
2022/02/15 10:42:13;;;;;;;7.43;3.30;;;8.60;99.90;;;;;;5056886;28;20301;-95
2022/02/15 10:44:59;;;;;;;12.13;3.50;;;8.80;99.90;;;;;;5056855;28;20216;-95
2022/02/15 10:47:30;;;;;;;11.17;3.80;;;8.70;99.90;;;;;;5069920;28;20666;-95
2022/02/15 10:50:03;;;;;;;14.73;4.10;;;8.80;99.90;;;;;;5057070;28;20202;-95
2022/02/15 10:52:31;;;;;;;17.40;4.77;;;9.00;99.90;;;;;;5075408;28;20655;-96
2022/02/15 10:55:06;;;;;;;9.53;4.20;;;9.30;99.90;;;;;;5077823;28;20215;-96
2022/02/15 10:57:42;;;;;;;13.33;4.30;;;9.40;99.90;;;;;;5085709;28;20205;-94
2022/02/15 11:00:15;;;;;;;10.10;4.70;;;9.40;99.90;;;;;;5079428;28;20212;-95
2022/02/15 11:03:14;;;;;;;13.03;4.20;;;9.40;99.90;;;;;;5085156;28;20275;-95
2022/02/15 11:06:05;;;;;;;14.40;3.40;;;9.50;99.90;;;;;;5083069;28;20193;-95
2022/02/15 11:08:44;;;;;;;14.33;3.03;;;9.60;99.90;;;;;;5078907;28;20198;-94
2022/02/15 11:11:17;;;;;;;9.53;3.10;;;9.50;99.90;;;;;;5081695;28;20209;-94
2022/02/15 11:13:57;;;;;;;7.50;2.43;;;9.50;99.90;;;;;;5082771;28;20649;-95
2022/02/15 11:16:34;;;;;;;6.13;2.27;;;9.30;99.90;;;;;;5077951;28;20335;-95
2022/02/15 11:19:33;;;;;;;9.97;2.87;;;9.30;99.90;;;;;;5074175;28;20205;-93
2022/02/15 11:22:16;;;;;;;5.27;1.90;;;9.40;99.90;;;;;;5074255;28;20198;-92
2022/02/15 11:24:51;;;;;;;12.90;2.30;;;9.50;99.90;;;;;;5073616;28;20272;-92
2022/02/15 11:27:22;;;;;;;12.73;2.70;;;9.30;99.90;;;;;;5074402;28;20202;-94
2022/02/15 11:29:52;;;;;;;9.60;2.60;;;9.50;99.90;;;;;;5073520;28;20233;-93
2022/02/15 11:32:42;;;;;;;7.50;2.13;;;9.60;99.90;;;;;;5053901;28;20209;-94
2022/02/15 11:35:14;;;;;;;13.25;3.10;;;9.70;99.90;;;;;;5057863;28;20443;-95
2022/02/15 11:37:47;;;;;;;12.77;2.13;;;9.70;99.90;;;;;;5073848;28;20186;-96
2022/02/15 11:40:21;;;;;;;10.60;2.40;;;9.60;99.90;;;;;;5073507;28;20206;-93
2022/02/15 11:42:54;;;;;;;7.30;1.97;;;9.70;99.90;;;;;;5073432;28;20189;-95
2022/02/15 11:45:29;;;;;;;7.80;1.93;;;9.60;99.90;;;;;;5073722;28;20282;-93
2022/02/15 11:48:06;;;;;;;8.10;2.13;;;9.50;99.90;;;;;;5074580;28;20190;-94
2022/02/15 11:50:44;;;;;;;4.43;1.93;;;9.80;99.90;;;;;;5076880;28;20201;-94
2022/02/15 11:53:11;;;;;;;7.60;2.10;;;9.80;99.90;;;;;;5076326;28;20205;-94
2022/02/15 11:55:41;;;;;;;6.13;1.83;;;9.80;99.90;;;;;;5076967;28;20664;-91
2022/02/15 11:58:09;;;;;;;6.80;2.17;;;9.70;99.90;;;;;;5069325;28;20207;-91
2022/02/15 12:00:37;;;;;;;6.87;2.00;;;9.80;99.90;;;;;;5071992;28;20201;-91
2022/02/15 12:03:07;;;;;;;9.83;1.80;;;9.90;99.90;;;;;;5067728;28;20217;-93
2022/02/15 12:05:44;;;;;;;10.37;2.20;;;9.80;99.90;;;;;;5073946;28;20213;-93
2022/02/15 12:08:13;;;;;;;7.07;1.87;;;9.90;99.90;;;;;;5072716;28;20225;-95
2022/02/15 12:10:44;;;;;;;6.23;1.43;;;10.00;99.90;;;;;;5079793;28;20205;-94
2022/02/15 12:13:19;;;;;;;9.30;2.40;;;10.00;99.90;;;;;;5073596;28;20439;-93
2022/02/15 12:15:48;;;;;;;10.37;2.23;;;10.00;99.90;;;;;;5079498;28;20470;-95
2022/02/15 12:18:39;;;;;;;13.17;2.73;;;10.00;99.90;;;;;;5080561;28;20213;-96
2022/02/15 12:21:13;;;;;;;7.80;2.17;;;10.30;99.90;;;;;;5060413;28;20680;-95
2022/02/15 12:23:42;;;;;;;7.83;2.23;;;10.40;99.90;;;;;;5084054;28;20216;-95
2022/02/15 12:26:30;;;;;;;6.80;2.00;;;10.30;99.90;;;;;;5083677;28;20200;-94
2022/02/15 12:28:59;;;;;;;6.27;2.23;;;10.50;99.90;;;;;;5079708;28;20229;-96
2022/02/15 12:31:25;;;;;;;10.30;2.07;;;10.60;99.90;;;;;;5052237;28;20266;-92
2022/02/15 12:33:58;;;;;;;11.80;2.57;;;10.50;99.90;;;;;;5068622;28;20215;-92
2022/02/15 12:36:25;;;;;;;12.90;2.60;;;10.50;99.90;;;;;;5075602;28;20637;-89
2022/02/15 12:38:53;;;;;;;9.17;2.23;;;10.30;99.90;;;;;;5077235;28;20194;-91
2022/02/15 12:41:27;;;;;;;11.47;2.37;;;10.40;99.90;;;;;;5078768;28;20209;-92
2022/02/15 12:44:06;;;;;;;8.03;2.40;;;10.30;99.90;;;;;;5061061;28;20206;-93
2022/02/15 12:46:39;;;;;;;6.03;1.93;;;10.30;99.90;;;;;;5077376;28;20226;-92
2022/02/15 12:49:12;;;;;;;6.53;1.73;;;10.50;99.90;;;;;;5076395;28;20215;-93
2022/02/15 12:51:43;;;;;;;8.55;2.97;;;10.60;99.90;;;;;;5076156;28;20783;-93
2022/02/15 12:54:10;;;;;;;11.87;2.47;;;10.70;99.90;;;;;;5076387;28;20209;-94
2022/02/15 12:56:45;;;;;;;8.47;2.23;;;10.60;99.90;;;;;;5075957;28;20583;-92
2022/02/15 12:59:19;;;;;;;8.03;2.10;;;10.70;99.90;;;;;;5075348;28;20201;-92
2022/02/15 13:02:01;;;;;;;9.23;2.33;;;10.60;99.90;;;;;;5075511;28;20215;-92
2022/02/15 13:04:28;;;;;;;8.67;2.23;;;10.50;99.90;;;;;;5057445;28;20283;-90
2022/02/15 13:06:58;;;;;;;8.43;1.87;;;10.50;99.90;;;;;;5075414;28;20194;-92
2022/02/15 13:09:30;;;;;;;9.80;2.37;;;10.50;99.90;;;;;;5075961;28;20209;-92
2022/02/15 13:12:04;;;;;;;13.17;2.27;;;10.50;99.90;;;;;;5075780;28;20201;-93
2022/02/15 13:14:45;;;;;;;9.13;2.37;;;10.60;99.90;;;;;;5075695;28;20202;-92
2022/02/15 13:17:23;;;;;;;10.83;1.77;;;10.60;99.90;;;;;;5075157;28;20225;-93
2022/02/15 13:19:53;;;;;;;8.47;1.90;;;10.50;99.90;;;;;;5076326;28;20205;-93
2022/02/15 13:22:24;;;;;;;5.70;1.93;;;10.50;99.90;;;;;;5076219;28;20194;-93
2022/02/15 13:24:53;;;;;;;7.43;2.00;;;10.60;99.90;;;;;;5076712;28;20202;-94